createdAt,value
2023-03-29T00:04:14.040Z,5.70
2023-03-29T00:09:20.493Z,6.13
2023-03-29T00:14:27.173Z,6.07
2023-03-29T00:19:38.329Z,5.82
2023-03-29T00:24:43.829Z,7.88
2023-03-29T00:29:49.275Z,7.68
2023-03-29T00:34:55.165Z,6.38
2023-03-29T00:40:01.595Z,5.53
2023-03-29T00:45:21.826Z,5.10
2023-03-29T00:50:33.008Z,5.70
2023-03-29T00:56:07.033Z,6.22
2023-03-29T01:01:20.057Z,6.18
2023-03-29T01:06:34.589Z,7.32
2023-03-29T01:11:48.056Z,5.78
2023-03-29T01:16:54.061Z,6.65
2023-03-29T01:22:43.177Z,6.28
2023-03-29T01:28:18.371Z,6.55
2023-03-29T01:33:40.241Z,6.63
2023-03-29T01:38:45.464Z,6.15
2023-03-29T01:44:08.080Z,5.75
2023-03-29T01:49:43.335Z,6.95
2023-03-29T01:55:08.845Z,5.97
2023-03-29T02:00:21.657Z,7.43
2023-03-29T02:05:31.187Z,7.25
2023-03-29T02:10:37.592Z,6.20
2023-03-29T02:15:45.843Z,7.43
2023-03-29T02:20:53.381Z,5.82
2023-03-29T02:25:59.333Z,5.50
2023-03-29T02:31:27.562Z,6.70
2023-03-29T02:36:42.518Z,6.65
2023-03-29T02:41:51.202Z,6.95
2023-03-29T02:47:04.086Z,7.00
2023-03-29T02:52:19.262Z,6.55
2023-03-29T02:57:26.998Z,5.55
2023-03-29T03:02:32.425Z,4.38
2023-03-29T03:07:37.880Z,6.70
2023-03-29T03:12:43.496Z,4.80
2023-03-29T03:17:49.973Z,7.57
2023-03-29T03:22:58.119Z,5.38
2023-03-29T03:28:03.461Z,5.40
2023-03-29T03:33:10.422Z,5.55
2023-03-29T03:38:36.792Z,4.95
2023-03-29T03:43:44.543Z,4.20
2023-03-29T03:48:50.146Z,4.47
2023-03-29T03:54:02.037Z,3.85
2023-03-29T03:59:14.290Z,5.68
2023-03-29T04:04:33.194Z,5.60
2023-03-29T04:09:50.274Z,4.63
2023-03-29T04:15:18.506Z,4.65
2023-03-29T04:20:30.351Z,4.50
2023-03-29T04:25:37.589Z,3.75
2023-03-29T04:31:02.406Z,4.00
2023-03-29T04:36:31.760Z,3.65
2023-03-29T04:41:36.918Z,5.38
2023-03-29T04:46:51.806Z,5.05
2023-03-29T04:52:22.394Z,5.00
2023-03-29T04:57:30.991Z,4.28
2023-03-29T05:02:54.685Z,4.32
2023-03-29T05:08:03.187Z,4.32
2023-03-29T05:13:24.081Z,4.25
2023-03-29T05:18:30.451Z,5.00
2023-03-29T05:23:35.018Z,4.85
2023-03-29T05:28:54.903Z,4.22
2023-03-29T05:33:59.438Z,4.00
2023-03-29T05:39:09.145Z,4.70
2023-03-29T05:44:13.991Z,5.72
2023-03-29T05:49:20.715Z,7.28
2023-03-29T05:54:39.415Z,4.40
2023-03-29T05:59:44.564Z,5.00
2023-03-29T06:04:49.484Z,5.00
2023-03-29T06:09:59.414Z,7.35
2023-03-29T06:15:05.692Z,4.88
2023-03-29T06:20:20.342Z,5.40
2023-03-29T06:25:30.713Z,4.93
2023-03-29T06:30:35.634Z,5.45
2023-03-29T06:35:43.534Z,6.07
2023-03-29T06:40:53.487Z,5.65
2023-03-29T06:46:01.116Z,6.15
2023-03-29T06:51:16.664Z,6.10
2023-03-29T06:56:21.278Z,5.43
2023-03-29T07:01:40.264Z,5.55
2023-03-29T07:07:02.038Z,4.35
2023-03-29T07:12:10.976Z,3.85
2023-03-29T07:17:15.482Z,6.00
2023-03-29T07:22:21.247Z,5.68
2023-03-29T07:27:30.083Z,4.15
2023-03-29T07:32:34.478Z,7.15
2023-03-29T07:37:50.301Z,5.88
2023-03-29T07:42:57.204Z,5.30
2023-03-29T07:48:02.683Z,6.25
2023-03-29T07:53:23.946Z,7.68
2023-03-29T07:58:31.911Z,6.07
2023-03-29T08:03:36.700Z,5.75
2023-03-29T08:08:42.875Z,8.43
2023-03-29T08:13:52.136Z,4.90
2023-03-29T08:19:15.442Z,4.40
2023-03-29T08:24:38.021Z,8.07
2023-03-29T08:29:44.710Z,4.70
2023-03-29T08:34:49.386Z,4.53
2023-03-29T08:40:08.429Z,4.25
2023-03-29T08:45:51.631Z,4.25
2023-03-29T08:51:10.106Z,4.00
2023-03-29T08:56:21.532Z,2.97
2023-03-29T09:01:54.655Z,4.50
2023-03-29T09:07:00.225Z,4.10
2023-03-29T09:12:22.422Z,4.28
2023-03-29T09:17:49.760Z,5.40
2023-03-29T09:23:26.344Z,4.75
2023-03-29T09:29:10.511Z,3.90
2023-03-29T09:34:20.129Z,2.90
2023-03-29T09:39:39.203Z,4.53
2023-03-29T09:44:57.885Z,3.30
2023-03-29T09:50:31.090Z,2.88
2023-03-29T09:55:41.395Z,3.25
2023-03-29T10:00:59.739Z,6.97
2023-03-29T10:06:07.696Z,3.65
2023-03-29T10:11:19.485Z,5.60
2023-03-29T10:16:36.029Z,4.55
2023-03-29T10:21:42.793Z,3.63
2023-03-29T10:26:47.662Z,4.38
2023-03-29T10:31:52.671Z,4.10
2023-03-29T10:37:00.653Z,6.03
2023-03-29T10:42:05.857Z,5.20
2023-03-29T10:47:11.203Z,4.75
2023-03-29T10:52:17.044Z,3.30
2023-03-29T10:57:41.869Z,2.85
2023-03-29T11:02:52.335Z,4.60
2023-03-29T11:08:31.856Z,3.83
2023-03-29T11:13:48.996Z,4.25
2023-03-29T11:19:10.513Z,3.58
2023-03-29T11:24:42.886Z,3.05
2023-03-29T11:35:17.143Z,4.30
2023-03-29T11:40:45.750Z,4.22
2023-03-29T11:46:09.588Z,3.42
2023-03-29T11:51:26.960Z,5.57
2023-03-29T11:56:56.353Z,3.50
2023-03-29T12:02:13.972Z,10.10
2023-03-29T12:07:27.236Z,5.53
2023-03-29T12:13:04.394Z,4.60
2023-03-29T12:18:27.255Z,4.18
2023-03-29T12:23:34.730Z,6.43
2023-03-29T12:28:44.184Z,3.75
2023-03-29T12:34:08.965Z,4.05
2023-03-29T12:39:45.739Z,3.45
2023-03-29T12:45:18.759Z,4.22
2023-03-29T12:50:38.639Z,4.13
2023-03-29T12:55:43.009Z,8.23
2023-03-29T13:00:48.596Z,5.65
2023-03-29T13:06:09.175Z,11.60
2023-03-29T13:11:31.428Z,3.00
2023-03-29T13:16:36.465Z,3.80
2023-03-29T13:22:12.368Z,5.10
2023-03-29T13:27:54.538Z,10.82
2023-03-29T13:33:27.664Z,6.10
2023-03-29T13:38:46.101Z,3.40
2023-03-29T13:43:55.181Z,4.75
2023-03-29T13:49:15.015Z,5.22
2023-03-29T13:54:43.419Z,7.90
2023-03-29T14:00:14.563Z,11.68
2023-03-29T14:05:24.449Z,7.40
2023-03-29T14:10:41.900Z,7.40
2023-03-29T14:16:09.557Z,15.07
2023-03-29T14:21:16.328Z,11.60
2023-03-29T14:26:23.751Z,23.80
2023-03-29T14:36:39.592Z,7.30
2023-03-29T14:42:00.107Z,15.93
2023-03-29T14:47:06.183Z,16.20
2023-03-29T14:52:13.825Z,45.58
2023-03-29T14:57:19.922Z,27.00
2023-03-29T15:02:31.352Z,25.92
2023-03-29T15:07:37.710Z,17.77
2023-03-29T15:12:43.150Z,26.02
2023-03-29T15:17:52.388Z,41.90
2023-03-29T15:23:05.061Z,46.88
2023-03-29T15:28:33.301Z,45.33
2023-03-29T15:33:40.892Z,75.10
2023-03-29T15:38:51.646Z,93.75
2023-03-29T15:43:58.076Z,17.73
2023-03-29T15:49:04.492Z,22.33
2023-03-29T15:54:09.740Z,22.55
2023-03-29T15:59:15.373Z,38.38
2023-03-29T16:04:22.936Z,30.77
2023-03-29T16:09:28.415Z,30.23
2023-03-29T16:14:34.113Z,19.70
2023-03-29T16:19:39.416Z,37.47
2023-03-29T16:24:45.155Z,18.58
2023-03-29T16:29:50.462Z,26.70
2023-03-29T16:34:55.834Z,18.13
2023-03-29T16:40:01.210Z,10.80
2023-03-29T16:45:07.446Z,14.10
2023-03-29T16:50:14.887Z,9.70
2023-03-29T16:55:21.805Z,18.50
2023-03-29T17:00:27.045Z,7.97
2023-03-29T17:05:33.958Z,5.13
2023-03-29T17:10:42.082Z,5.57
2023-03-29T17:15:47.384Z,8.98
2023-03-29T17:20:56.052Z,6.82
2023-03-29T17:26:02.816Z,4.53
2023-03-29T17:31:08.653Z,6.47
2023-03-29T17:36:13.846Z,4.93
2023-03-29T17:41:19.772Z,5.20
2023-03-29T17:46:25.130Z,5.35
2023-03-29T17:51:30.800Z,14.25
2023-03-29T17:56:36.525Z,7.03
2023-03-29T18:01:42.374Z,14.70
2023-03-29T18:06:50.000Z,16.00
2023-03-29T18:17:00.995Z,12.27
2023-03-29T18:22:06.413Z,9.00
2023-03-29T18:27:12.777Z,8.63
2023-03-29T18:32:18.138Z,6.40
2023-03-29T18:37:23.456Z,6.65
2023-03-29T18:42:28.844Z,8.23
2023-03-29T18:47:34.118Z,7.60
2023-03-29T18:52:39.494Z,6.38
2023-03-29T18:57:45.070Z,6.40
2023-03-29T19:02:50.550Z,5.20
2023-03-29T19:07:55.811Z,5.22
2023-03-29T19:13:01.535Z,8.07
2023-03-29T19:18:09.431Z,10.27
2023-03-29T19:23:14.764Z,5.97
2023-03-29T19:28:19.967Z,6.63
2023-03-29T19:33:25.396Z,5.70
2023-03-29T19:38:31.242Z,7.97
2023-03-29T19:43:36.664Z,5.93
2023-03-29T19:48:43.176Z,7.38
2023-03-29T19:53:48.600Z,11.68
2023-03-29T19:58:54.414Z,8.18
2023-03-29T20:03:59.794Z,8.57
2023-03-29T20:09:05.715Z,8.25
2023-03-29T20:14:11.992Z,7.60
2023-03-29T20:19:27.112Z,9.07
2023-03-29T20:24:33.244Z,6.07
2023-03-29T20:29:38.636Z,4.95
2023-03-29T20:34:43.930Z,6.30
2023-03-29T20:39:50.509Z,8.15
2023-03-29T20:44:57.127Z,5.72
2023-03-29T20:50:04.809Z,5.75
2023-03-29T20:55:10.169Z,8.13
2023-03-29T21:00:16.715Z,9.70
2023-03-29T21:05:22.979Z,5.28
2023-03-29T21:10:28.874Z,7.55
2023-03-29T21:15:34.233Z,6.78
2023-03-29T21:20:39.500Z,7.18
2023-03-29T21:25:44.780Z,6.60
2023-03-29T21:30:50.112Z,8.68
2023-03-29T21:35:55.577Z,5.65
2023-03-29T21:41:01.546Z,8.38
2023-03-29T21:46:08.152Z,6.90
2023-03-29T21:51:13.305Z,9.43
2023-03-29T21:56:18.750Z,9.43
2023-03-29T22:01:24.118Z,7.93
2023-03-29T22:06:29.431Z,11.07
2023-03-29T22:11:35.257Z,7.55
2023-03-29T22:16:40.930Z,7.95
2023-03-29T22:21:46.470Z,6.50
2023-03-29T22:26:51.895Z,8.15
2023-03-29T22:31:57.230Z,7.10
2023-03-29T22:37:02.342Z,6.25
2023-03-29T22:42:07.978Z,7.55
2023-03-29T22:47:13.997Z,7.05
2023-03-29T22:52:19.622Z,7.78
2023-03-29T22:57:25.005Z,9.90
2023-03-29T23:02:30.728Z,6.47
2023-03-29T23:07:37.064Z,10.15
2023-03-29T23:12:43.529Z,6.97
2023-03-29T23:17:49.254Z,11.02
2023-03-29T23:22:54.912Z,8.88
2023-03-29T23:28:00.158Z,6.95
2023-03-29T23:33:06.618Z,8.35
2023-03-29T23:38:12.081Z,6.03
2023-03-29T23:43:17.662Z,6.88
2023-03-29T23:48:24.239Z,8.38
2023-03-29T23:53:30.898Z,8.63
2023-03-29T23:58:38.595Z,8.75
